createdAt,value
2022-09-12T00:02:19.651Z,5.60
2022-09-12T00:05:22.650Z,4.83
2022-09-12T00:08:24.347Z,7.33
2022-09-12T00:11:26.516Z,5.70
2022-09-12T00:14:28.193Z,5.53
2022-09-12T00:17:29.879Z,4.53
2022-09-12T00:20:31.614Z,4.30
2022-09-12T00:23:33.369Z,3.90
2022-09-12T00:26:36.025Z,4.73
2022-09-12T00:29:37.728Z,6.90
2022-09-12T00:32:39.384Z,4.87
2022-09-12T00:35:46.859Z,5.13
2022-09-12T00:38:49.370Z,4.83
2022-09-12T00:41:51.545Z,7.23
2022-09-12T00:44:53.821Z,7.90
2022-09-12T00:48:00.914Z,5.27
2022-09-12T00:51:02.956Z,7.43
2022-09-12T00:54:09.435Z,4.87
2022-09-12T00:57:13.151Z,5.70
2022-09-12T01:00:18.636Z,4.90
2022-09-12T01:03:23.108Z,5.07
2022-09-12T01:06:35.195Z,11.00
2022-09-12T01:09:37.807Z,6.00
2022-09-12T01:12:42.289Z,4.40
2022-09-12T01:15:44.018Z,5.17
2022-09-12T01:18:48.423Z,5.27
2022-09-12T01:22:16.033Z,4.30
2022-09-12T01:25:38.951Z,5.20
2022-09-12T01:28:59.341Z,4.40
2022-09-12T01:32:25.946Z,6.87
2022-09-12T01:35:55.081Z,7.33
2022-09-12T01:39:04.053Z,3.97
2022-09-12T01:42:13.684Z,6.20
2022-09-12T01:45:18.365Z,4.80
2022-09-12T01:48:27.359Z,6.67
2022-09-12T01:51:38.327Z,6.87
2022-09-12T01:54:57.629Z,7.63
2022-09-12T01:58:22.508Z,5.87
2022-09-12T02:01:30.648Z,8.10
2022-09-12T02:04:38.783Z,6.50
2022-09-12T02:07:54.334Z,5.87
2022-09-12T02:11:07.687Z,11.30
2022-09-12T02:14:17.809Z,5.13
2022-09-12T02:17:22.764Z,6.43
2022-09-12T02:20:47.348Z,7.40
2022-09-12T02:23:57.201Z,5.73
2022-09-12T02:27:11.268Z,5.60
2022-09-12T02:30:17.532Z,4.50
2022-09-12T02:33:30.888Z,6.27
2022-09-12T02:36:41.401Z,9.60
2022-09-12T02:39:46.848Z,5.50
2022-09-12T02:42:49.124Z,5.23
2022-09-12T02:45:51.369Z,6.47
2022-09-12T02:48:54.202Z,8.40
2022-09-12T02:51:56.219Z,7.63
2022-09-12T02:54:58.529Z,5.90
2022-09-12T02:58:06.280Z,7.50
2022-09-12T03:01:35.320Z,6.60
2022-09-12T03:04:58.197Z,8.87
2022-09-12T03:08:14.840Z,8.67
2022-09-12T03:11:53.691Z,7.63
2022-09-12T03:15:01.780Z,8.77
2022-09-12T03:18:24.307Z,8.47
2022-09-12T03:21:29.037Z,7.53
2022-09-12T03:24:37.915Z,8.17
2022-09-12T03:27:49.390Z,8.47
2022-09-12T03:30:53.399Z,9.73
2022-09-12T03:33:55.168Z,11.23
2022-09-12T03:36:56.863Z,9.80
2022-09-12T03:39:58.558Z,9.13
2022-09-12T03:43:00.340Z,12.17
2022-09-12T03:46:02.167Z,13.50
2022-09-12T03:49:04.070Z,9.57
2022-09-12T03:52:05.794Z,11.83
2022-09-12T03:55:07.782Z,9.20
2022-09-12T03:58:09.746Z,10.93
2022-09-12T04:01:14.450Z,8.90
2022-09-12T04:04:16.143Z,11.70
2022-09-12T04:07:17.888Z,18.03
2022-09-12T04:10:20.001Z,12.40
2022-09-12T04:13:21.660Z,11.17
2022-09-12T04:16:23.501Z,11.70
2022-09-12T04:19:26.239Z,8.77
2022-09-12T04:22:29.789Z,14.57
2022-09-12T04:25:31.703Z,10.97
2022-09-12T04:28:36.074Z,10.93
2022-09-12T04:31:38.298Z,13.63
2022-09-12T04:34:39.956Z,11.57
2022-09-12T04:37:41.665Z,13.03
2022-09-12T04:40:43.374Z,13.77
2022-09-12T04:43:48.897Z,10.60
2022-09-12T04:46:50.620Z,17.80
2022-09-12T04:49:52.379Z,11.17
2022-09-12T04:52:54.515Z,13.13
2022-09-12T04:55:56.163Z,11.20
2022-09-12T04:59:00.429Z,10.33
2022-09-12T05:02:02.640Z,11.40
2022-09-12T05:05:04.759Z,10.13
2022-09-12T05:08:06.568Z,13.33
2022-09-12T05:11:12.732Z,8.17
2022-09-12T05:14:14.459Z,9.10
2022-09-12T05:17:16.249Z,11.07
2022-09-12T05:20:19.464Z,10.80
2022-09-12T05:23:21.832Z,10.23
2022-09-12T05:26:24.137Z,8.20
2022-09-12T05:29:26.005Z,10.07
2022-09-12T05:32:31.682Z,10.90
2022-09-12T05:35:33.357Z,9.13
2022-09-12T05:38:35.610Z,7.10
2022-09-12T05:41:37.660Z,8.20
2022-09-12T05:44:39.337Z,11.00
2022-09-12T05:47:41.899Z,13.77
2022-09-12T05:50:43.649Z,11.00
2022-09-12T05:53:47.451Z,11.97
2022-09-12T05:56:49.192Z,13.80
2022-09-12T05:59:50.892Z,15.13
2022-09-12T06:02:53.425Z,13.93
2022-09-12T06:05:55.266Z,11.87
2022-09-12T06:09:02.006Z,12.00
2022-09-12T06:12:04.113Z,14.03
2022-09-12T06:15:06.385Z,16.77
2022-09-12T06:18:08.043Z,15.73
2022-09-12T06:21:11.952Z,14.30
2022-09-12T06:24:13.955Z,13.47
2022-09-12T06:27:16.093Z,15.40
2022-09-12T06:30:20.329Z,16.73
2022-09-12T06:33:23.996Z,14.50
2022-09-12T06:36:29.346Z,14.73
2022-09-12T06:39:32.499Z,13.73
2022-09-12T06:42:34.438Z,13.87
2022-09-12T06:45:36.289Z,15.37
2022-09-12T06:48:41.713Z,19.47
2022-09-12T06:51:44.362Z,13.90
2022-09-12T06:54:47.408Z,14.97
2022-09-12T06:57:49.250Z,16.23
2022-09-12T07:00:53.970Z,16.53
2022-09-12T07:04:00.186Z,14.10
2022-09-12T07:07:01.869Z,15.00
2022-09-12T07:10:04.023Z,13.07
2022-09-12T07:13:05.693Z,14.23
2022-09-12T07:16:08.511Z,14.73
2022-09-12T07:19:10.519Z,16.20
2022-09-12T07:22:12.216Z,12.97
2022-09-12T07:25:13.943Z,15.50
2022-09-12T07:28:15.595Z,13.07
2022-09-12T07:31:19.134Z,16.63
2022-09-12T07:34:20.833Z,18.50
2022-09-12T07:37:22.485Z,13.80
2022-09-12T07:40:24.251Z,16.83
2022-09-12T07:43:25.951Z,15.43
2022-09-12T07:46:29.570Z,15.03
2022-09-12T07:49:31.260Z,14.50
2022-09-12T07:52:32.916Z,14.30
2022-09-12T07:55:34.590Z,13.97
2022-09-12T07:58:37.983Z,14.67
2022-09-12T08:01:40.103Z,15.43
2022-09-12T08:04:42.131Z,13.50
2022-09-12T08:07:43.895Z,14.90
2022-09-12T08:10:45.619Z,16.00
2022-09-12T08:13:52.966Z,12.90
2022-09-12T08:16:56.678Z,13.30
2022-09-12T08:19:58.830Z,15.70
2022-09-12T08:28:41.488Z,14.60
2022-09-12T08:31:43.303Z,13.97
2022-09-12T08:34:44.938Z,16.23
2022-09-12T08:37:46.560Z,21.50
2022-09-12T08:45:43.136Z,15.80
2022-09-12T08:48:46.658Z,21.37
2022-09-12T08:51:48.563Z,17.77
2022-09-12T08:54:50.608Z,15.87
2022-09-12T08:57:53.065Z,14.63
2022-09-12T09:00:59.338Z,11.97
2022-09-12T09:04:18.781Z,17.13
2022-09-12T09:07:37.177Z,13.90
2022-09-12T09:10:48.731Z,14.10
2022-09-12T09:14:20.477Z,13.73
2022-09-12T09:17:40.826Z,16.93
2022-09-12T09:20:55.114Z,16.63
2022-09-12T09:24:10.167Z,15.77
2022-09-12T09:27:36.983Z,15.33
2022-09-12T09:30:37.661Z,17.03
2022-09-12T09:33:39.323Z,15.77
2022-09-12T09:36:54.195Z,16.90
2022-09-12T09:40:17.352Z,16.37
2022-09-12T09:43:24.349Z,13.00
2022-09-12T09:46:27.330Z,16.67
2022-09-12T09:49:33.215Z,13.87
2022-09-12T09:52:36.060Z,17.60
2022-09-12T09:55:42.270Z,15.53
2022-09-12T09:58:43.920Z,19.03
2022-09-12T10:01:54.761Z,18.73
2022-09-12T10:04:58.671Z,15.40
2022-09-12T10:08:00.396Z,18.40
2022-09-12T10:11:17.204Z,16.80
2022-09-12T10:14:43.521Z,15.30
2022-09-12T10:17:48.191Z,12.83
2022-09-12T10:20:49.925Z,13.67
2022-09-12T10:24:00.028Z,13.13
2022-09-12T10:27:15.839Z,10.88
2022-09-12T10:30:20.207Z,13.05
2022-09-12T10:33:25.716Z,17.63
2022-09-12T10:36:38.386Z,13.65
2022-09-12T10:39:40.133Z,10.40
2022-09-12T10:42:52.740Z,10.20
2022-09-12T10:45:59.350Z,12.05
2022-09-12T10:49:24.189Z,9.38
2022-09-12T10:52:27.283Z,9.88
2022-09-12T10:55:34.820Z,9.18
2022-09-12T10:59:05.731Z,9.13
2022-09-12T11:02:35.083Z,16.08
2022-09-12T11:05:48.376Z,11.13
2022-09-12T11:09:19.184Z,9.43
2022-09-12T11:12:30.968Z,10.25
2022-09-12T11:15:53.375Z,8.18
2022-09-12T11:24:01.475Z,9.20
2022-09-12T11:27:03.084Z,5.97
2022-09-12T11:35:05.133Z,8.57
2022-09-12T11:38:29.223Z,5.63
2022-09-12T11:42:05.988Z,3.83
2022-09-12T11:45:17.485Z,6.97
2022-09-12T11:48:28.183Z,6.40
2022-09-12T11:51:43.983Z,8.05
2022-09-12T11:55:03.681Z,5.32
2022-09-12T11:58:08.450Z,6.05
2022-09-12T12:01:17.815Z,7.67
2022-09-12T12:04:27.680Z,3.97
2022-09-12T12:07:45.526Z,6.23
2022-09-12T12:10:59.674Z,4.05
2022-09-12T12:14:19.458Z,6.38
2022-09-12T12:17:24.017Z,3.65
2022-09-12T12:20:27.181Z,3.63
2022-09-12T12:23:35.254Z,3.35
2022-09-12T12:26:42.712Z,5.13
2022-09-12T12:29:44.813Z,3.13
2022-09-12T12:32:46.450Z,3.33
2022-09-12T12:36:09.211Z,3.70
2022-09-12T12:39:33.564Z,3.53
2022-09-12T12:42:35.212Z,3.70
2022-09-12T12:45:36.829Z,3.67
2022-09-12T12:49:00.483Z,3.40
2022-09-12T12:52:02.439Z,2.78
2022-09-12T12:55:04.828Z,3.53
2022-09-12T12:58:21.809Z,2.90
2022-09-12T13:01:23.810Z,2.63
2022-09-12T13:04:29.900Z,4.00
2022-09-12T13:07:40.875Z,4.00
2022-09-12T13:10:59.559Z,2.60
2022-09-12T13:14:04.560Z,3.10
2022-09-12T13:17:07.704Z,4.50
2022-09-12T13:20:28.371Z,5.18
2022-09-12T13:23:32.461Z,2.08
2022-09-12T13:26:40.181Z,3.83
2022-09-12T13:29:42.386Z,2.75
2022-09-12T13:32:44.378Z,4.88
2022-09-12T13:36:28.141Z,2.80
2022-09-12T13:39:37.005Z,3.17
2022-09-12T13:42:42.455Z,2.38
2022-09-12T13:45:46.898Z,2.67
2022-09-12T13:48:48.871Z,4.32
2022-09-12T13:52:03.057Z,4.38
2022-09-12T13:55:25.160Z,2.60
2022-09-12T13:58:29.629Z,1.73
2022-09-12T14:01:57.550Z,2.65
2022-09-12T14:05:11.362Z,2.00
2022-09-12T14:08:15.240Z,3.33
2022-09-12T14:11:28.296Z,6.00
2022-09-12T14:14:40.412Z,4.38
2022-09-12T14:17:51.662Z,2.70
2022-09-12T14:20:57.357Z,2.55
2022-09-12T14:24:00.749Z,2.95
2022-09-12T14:27:02.545Z,2.40
2022-09-12T14:30:21.592Z,3.83
2022-09-12T14:33:23.249Z,2.92
2022-09-12T14:36:35.487Z,4.13
2022-09-12T14:39:43.931Z,2.00
2022-09-12T14:42:49.516Z,2.17
2022-09-12T14:46:00.234Z,1.95
2022-09-12T14:49:34.925Z,3.85
2022-09-12T14:52:37.871Z,5.22
2022-09-12T14:55:46.299Z,4.15
2022-09-12T14:58:48.974Z,2.95
2022-09-12T15:01:50.657Z,2.83
2022-09-12T15:05:23.279Z,3.78
2022-09-12T15:08:25.384Z,2.13
2022-09-12T15:11:27.078Z,1.70
2022-09-12T15:14:28.715Z,2.95
2022-09-12T15:17:30.344Z,2.10
2022-09-12T15:20:43.482Z,4.00
2022-09-12T15:23:49.989Z,3.80
2022-09-12T15:26:51.612Z,2.15
2022-09-12T15:29:53.732Z,2.35
2022-09-12T15:32:55.602Z,2.83
2022-09-12T15:35:57.234Z,1.55
2022-09-12T15:38:58.932Z,2.38
2022-09-12T15:42:00.597Z,2.20
2022-09-12T15:45:04.766Z,3.60
2022-09-12T15:48:06.545Z,4.10
2022-09-12T15:51:15.392Z,1.88
2022-09-12T15:54:18.262Z,1.52
2022-09-12T15:57:19.946Z,2.65
2022-09-12T16:00:22.645Z,2.08
2022-09-12T16:03:58.721Z,3.08
2022-09-12T16:07:00.585Z,1.85
2022-09-12T16:10:02.271Z,1.88
2022-09-12T16:13:04.421Z,2.22
2022-09-12T16:16:07.571Z,5.35
2022-09-12T16:19:10.549Z,3.25
2022-09-12T16:22:12.192Z,3.17
2022-09-12T16:25:13.878Z,2.22
2022-09-12T16:28:15.776Z,1.65
2022-09-12T16:39:59.626Z,2.58
2022-09-12T16:43:01.695Z,3.05
2022-09-12T16:46:05.953Z,2.00
2022-09-12T16:49:20.121Z,3.53
2022-09-12T16:52:21.760Z,2.97
2022-09-12T16:55:23.406Z,2.67
2022-09-12T16:58:25.229Z,3.15
2022-09-12T17:01:27.528Z,3.35
2022-09-12T17:04:29.371Z,3.28
2022-09-12T17:07:31.055Z,2.08
2022-09-12T17:10:33.045Z,3.65
2022-09-12T17:14:00.175Z,2.95
2022-09-12T17:16:58.914Z,2.55
2022-09-12T17:29:13.724Z,2.08
2022-09-12T17:32:17.551Z,2.17
2022-09-12T17:35:19.369Z,3.00
2022-09-12T17:38:25.130Z,3.25
2022-09-12T17:41:31.597Z,4.80
2022-09-12T17:44:34.406Z,4.15
2022-09-12T17:47:36.071Z,3.35
2022-09-12T17:50:39.576Z,4.65
2022-09-12T17:53:42.888Z,4.95
2022-09-12T17:56:46.525Z,3.33
2022-09-12T17:59:48.298Z,3.00
2022-09-12T18:02:50.619Z,4.78
2022-09-12T18:05:54.828Z,4.32
2022-09-12T18:09:01.035Z,5.10
2022-09-12T18:12:02.806Z,3.13
2022-09-12T18:15:04.741Z,4.47
2022-09-12T18:22:28.667Z,4.50
2022-09-12T18:25:30.321Z,4.00
2022-09-12T18:28:33.848Z,4.25
2022-09-12T18:31:35.863Z,5.27
2022-09-12T18:34:37.967Z,8.63
2022-09-12T18:37:43.816Z,3.28
2022-09-12T18:40:45.529Z,5.25
2022-09-12T18:43:47.740Z,5.82
2022-09-12T18:46:49.540Z,4.87
2022-09-12T18:49:51.254Z,5.53
2022-09-12T18:52:56.715Z,3.50
2022-09-12T18:56:10.562Z,4.17
2022-09-12T18:59:15.404Z,4.13
2022-09-12T19:02:17.113Z,6.27
2022-09-12T19:05:18.798Z,5.93
2022-09-12T19:08:20.447Z,6.57
2022-09-12T19:11:22.984Z,5.97
2022-09-12T19:14:26.574Z,6.00
2022-09-12T19:17:28.449Z,4.90
2022-09-12T19:20:30.180Z,4.43
2022-09-12T19:23:32.977Z,4.53
2022-09-12T19:26:36.080Z,4.43
2022-09-12T19:29:37.723Z,3.93
2022-09-12T19:32:39.409Z,5.87
2022-09-12T19:35:41.070Z,4.47
2022-09-12T19:38:42.717Z,4.27
2022-09-12T19:41:44.649Z,6.70
2022-09-12T19:44:46.358Z,13.03
2022-09-12T19:47:48.309Z,8.37
2022-09-12T19:50:50.546Z,3.60
2022-09-12T19:53:52.514Z,6.10
2022-09-12T19:56:54.286Z,6.17
2022-09-12T19:59:55.924Z,4.77
2022-09-12T20:02:57.577Z,5.40
2022-09-12T20:06:06.943Z,8.97
2022-09-12T20:09:09.009Z,4.47
2022-09-12T20:12:11.048Z,4.37
2022-09-12T20:15:12.820Z,4.23
2022-09-12T20:18:14.441Z,4.23
2022-09-12T20:21:18.528Z,4.90
2022-09-12T20:29:08.573Z,4.47
2022-09-12T20:32:10.219Z,4.63
2022-09-12T20:35:11.924Z,7.13
2022-09-12T20:38:13.574Z,3.63
2022-09-12T20:41:15.774Z,4.80
2022-09-12T20:44:17.644Z,6.70
2022-09-12T20:47:19.337Z,3.83
2022-09-12T20:50:20.997Z,8.03
2022-09-12T20:53:22.637Z,3.60
2022-09-12T20:56:26.531Z,5.37
2022-09-12T20:59:28.181Z,4.97
2022-09-12T21:02:30.013Z,5.87
2022-09-12T21:05:31.797Z,5.87
2022-09-12T21:08:34.129Z,4.33
2022-09-12T21:11:35.829Z,6.17
2022-09-12T21:14:37.494Z,5.60
2022-09-12T21:17:39.395Z,5.17
2022-09-12T21:20:41.068Z,5.37
2022-09-12T21:23:42.796Z,5.03
2022-09-12T21:26:44.493Z,10.93
2022-09-12T21:29:46.168Z,3.87
2022-09-12T21:32:47.941Z,5.27
2022-09-12T21:35:50.154Z,5.13
2022-09-12T21:38:51.817Z,9.63
2022-09-12T21:41:53.486Z,7.03
2022-09-12T21:44:55.309Z,7.70
2022-09-12T21:47:57.593Z,9.20
2022-09-12T21:51:00.014Z,5.70
2022-09-12T21:54:01.762Z,4.40
2022-09-12T21:57:03.561Z,7.67
2022-09-12T22:00:08.482Z,8.73
2022-09-12T22:03:11.478Z,5.70
2022-09-12T22:06:22.411Z,5.07
2022-09-12T22:09:25.444Z,6.07
2022-09-12T22:12:28.643Z,4.37
2022-09-12T22:15:45.672Z,5.40
2022-09-12T22:18:47.373Z,6.67
2022-09-12T22:22:07.881Z,5.23
2022-09-12T22:25:11.661Z,4.90
2022-09-12T22:28:13.726Z,5.83
2022-09-12T22:31:16.305Z,4.37
2022-09-12T22:34:17.986Z,9.53
2022-09-12T22:37:20.718Z,6.17
2022-09-12T22:40:22.456Z,4.13
2022-09-12T22:43:24.398Z,4.47
2022-09-12T22:46:26.373Z,5.60
2022-09-12T22:49:28.099Z,5.30
2022-09-12T22:52:29.795Z,4.27
2022-09-12T22:55:31.483Z,5.53
2022-09-12T23:03:14.674Z,6.07
2022-09-12T23:06:53.435Z,7.13
2022-09-12T23:10:45.151Z,5.00
2022-09-12T23:13:48.712Z,5.37
2022-09-12T23:16:50.432Z,6.47
2022-09-12T23:19:52.495Z,9.00
2022-09-12T23:22:54.727Z,5.00
2022-09-12T23:26:13.588Z,6.60
2022-09-12T23:29:15.595Z,5.10
2022-09-12T23:32:17.541Z,7.80
2022-09-12T23:35:19.620Z,5.10
2022-09-12T23:38:21.251Z,4.90
2022-09-12T23:41:23.593Z,5.83
2022-09-12T23:44:25.258Z,6.27
2022-09-12T23:47:26.900Z,7.83
2022-09-12T23:50:28.665Z,10.37
2022-09-12T23:53:30.967Z,12.33
2022-09-12T23:56:32.636Z,5.73
